sensor_id;sensor_type;location;lat;lon;timestamp;pressure;altitude;pressure_sealevel;temperature;humidity
13869;BME280;7004;48.206;16.402;2023-08-17T00:00:51;99933.50;;;20.79;100.00
13869;BME280;7004;48.206;16.402;2023-08-17T00:03:17;99935.91;;;21.24;100.00
13869;BME280;7004;48.206;16.402;2023-08-17T00:05:45;99935.75;;;21.60;100.00
13869;BME280;7004;48.206;16.402;2023-08-17T00:08:11;99938.91;;;21.13;100.00
13869;BME280;7004;48.206;16.402;2023-08-17T00:10:37;99933.28;;;20.98;100.00
13869;BME280;7004;48.206;16.402;2023-08-17T00:13:04;99929.59;;;21.84;100.00
13869;BME280;7004;48.206;16.402;2023-08-17T00:15:31;99924.03;;;21.69;100.00
13869;BME280;7004;48.206;16.402;2023-08-17T00:17:58;99917.56;;;21.46;100.00
13869;BME280;7004;48.206;16.402;2023-08-17T00:20:24;99924.56;;;20.96;100.00
13869;BME280;7004;48.206;16.402;2023-08-17T00:22:50;99929.34;;;20.84;100.00
13869;BME280;7004;48.206;16.402;2023-08-17T00:25:16;99916.78;;;21.70;100.00
13869;BME280;7004;48.206;16.402;2023-08-17T00:27:42;99914.47;;;21.32;100.00
13869;BME280;7004;48.206;16.402;2023-08-17T00:30:09;99927.34;;;21.21;100.00
13869;BME280;7004;48.206;16.402;2023-08-17T00:32:35;99927.09;;;21.40;100.00
13869;BME280;7004;48.206;16.402;2023-08-17T00:35:02;99926.97;;;21.15;100.00
13869;BME280;7004;48.206;16.402;2023-08-17T00:37:28;99921.31;;;21.27;100.00
13869;BME280;7004;48.206;16.402;2023-08-17T00:39:54;99924.00;;;21.27;100.00
13869;BME280;7004;48.206;16.402;2023-08-17T00:42:20;99922.38;;;21.00;100.00
13869;BME280;7004;48.206;16.402;2023-08-17T00:44:46;99933.94;;;20.12;100.00
13869;BME280;7004;48.206;16.402;2023-08-17T00:47:13;99939.44;;;20.28;100.00
13869;BME280;7004;48.206;16.402;2023-08-17T00:49:40;99941.09;;;20.57;100.00
13869;BME280;7004;48.206;16.402;2023-08-17T00:52:07;99941.94;;;21.44;100.00
13869;BME280;7004;48.206;16.402;2023-08-17T00:54:33;99936.56;;;21.18;100.00
13869;BME280;7004;48.206;16.402;2023-08-17T00:56:59;99938.94;;;21.21;100.00
13869;BME280;7004;48.206;16.402;2023-08-17T00:59:26;99954.34;;;20.85;100.00
13869;BME280;7004;48.206;16.402;2023-08-17T01:01:52;99958.94;;;20.66;100.00
13869;BME280;7004;48.206;16.402;2023-08-17T01:04:18;99950.00;;;20.84;100.00
13869;BME280;7004;48.206;16.402;2023-08-17T01:06:44;99947.78;;;20.79;100.00
13869;BME280;7004;48.206;16.402;2023-08-17T01:09:10;99939.94;;;21.20;100.00
13869;BME280;7004;48.206;16.402;2023-08-17T01:15:37;99938.31;;;21.01;100.00
13869;BME280;7004;48.206;16.402;2023-08-17T01:18:28;99942.44;;;20.61;100.00
13869;BME280;7004;48.206;16.402;2023-08-17T01:20:55;99948.69;;;20.70;100.00
13869;BME280;7004;48.206;16.402;2023-08-17T01:23:22;99942.75;;;20.40;100.00
13869;BME280;7004;48.206;16.402;2023-08-17T01:25:49;99926.00;;;21.51;100.00
13869;BME280;7004;48.206;16.402;2023-08-17T01:28:15;99940.78;;;21.21;100.00
13869;BME280;7004;48.206;16.402;2023-08-17T01:31:11;99927.94;;;21.06;100.00
13869;BME280;7004;48.206;16.402;2023-08-17T01:33:48;99933.53;;;21.13;100.00
13869;BME280;7004;48.206;16.402;2023-08-17T01:36:37;99936.78;;;20.72;100.00
13869;BME280;7004;48.206;16.402;2023-08-17T01:39:06;99925.25;;;20.80;100.00
13869;BME280;7004;48.206;16.402;2023-08-17T01:41:33;99931.63;;;20.35;100.00
13869;BME280;7004;48.206;16.402;2023-08-17T01:44:01;99936.38;;;20.59;100.00
13869;BME280;7004;48.206;16.402;2023-08-17T01:46:31;99927.16;;;20.62;100.00
13869;BME280;7004;48.206;16.402;2023-08-17T01:49:00;99931.97;;;20.14;100.00
13869;BME280;7004;48.206;16.402;2023-08-17T01:51:27;99938.28;;;20.31;100.00
13869;BME280;7004;48.206;16.402;2023-08-17T01:53:53;99931.44;;;20.72;100.00
13869;BME280;7004;48.206;16.402;2023-08-17T01:56:21;99928.31;;;20.85;100.00
13869;BME280;7004;48.206;16.402;2023-08-17T01:58:47;99929.97;;;20.78;100.00
13869;BME280;7004;48.206;16.402;2023-08-17T02:01:16;99921.28;;;20.58;100.00
13869;BME280;7004;48.206;16.402;2023-08-17T02:03:42;99919.34;;;20.68;100.00
13869;BME280;7004;48.206;16.402;2023-08-17T02:06:09;99924.00;;;20.48;100.00
13869;BME280;7004;48.206;16.402;2023-08-17T02:08:37;99928.69;;;20.46;100.00
13869;BME280;7004;48.206;16.402;2023-08-17T02:11:03;99932.72;;;20.24;100.00
13869;BME280;7004;48.206;16.402;2023-08-17T02:13:30;99938.22;;;20.23;100.00
13869;BME280;7004;48.206;16.402;2023-08-17T02:15:57;99936.75;;;20.28;100.00
13869;BME280;7004;48.206;16.402;2023-08-17T02:18:25;99934.69;;;20.40;100.00
13869;BME280;7004;48.206;16.402;2023-08-17T02:20:51;99933.28;;;20.72;100.00
13869;BME280;7004;48.206;16.402;2023-08-17T02:23:17;99920.28;;;21.54;99.79
13869;BME280;7004;48.206;16.402;2023-08-17T02:25:44;99915.59;;;21.56;99.34
13869;BME280;7004;48.206;16.402;2023-08-17T02:28:11;99915.44;;;21.23;100.00
13869;BME280;7004;48.206;16.402;2023-08-17T02:30:38;99913.53;;;20.37;100.00
13869;BME280;7004;48.206;16.402;2023-08-17T02:33:04;99914.09;;;20.67;100.00
13869;BME280;7004;48.206;16.402;2023-08-17T02:35:30;99906.94;;;21.02;100.00
13869;BME280;7004;48.206;16.402;2023-08-17T02:37:56;99909.91;;;20.99;100.00
13869;BME280;7004;48.206;16.402;2023-08-17T02:40:22;99914.59;;;20.44;100.00
13869;BME280;7004;48.206;16.402;2023-08-17T02:42:48;99922.84;;;20.51;100.00
13869;BME280;7004;48.206;16.402;2023-08-17T02:45:15;99921.00;;;20.69;100.00
13869;BME280;7004;48.206;16.402;2023-08-17T02:47:41;99931.00;;;20.23;100.00
13869;BME280;7004;48.206;16.402;2023-08-17T02:50:07;99948.13;;;20.04;100.00
13869;BME280;7004;48.206;16.402;2023-08-17T02:52:34;99938.59;;;20.46;100.00
13869;BME280;7004;48.206;16.402;2023-08-17T02:55:00;99943.47;;;20.86;100.00
13869;BME280;7004;48.206;16.402;2023-08-17T02:57:26;99932.47;;;21.06;100.00
13869;BME280;7004;48.206;16.402;2023-08-17T02:59:52;99940.41;;;20.81;100.00
13869;BME280;7004;48.206;16.402;2023-08-17T03:02:18;99931.97;;;21.02;100.00
13869;BME280;7004;48.206;16.402;2023-08-17T03:04:44;99932.31;;;21.92;96.82
13869;BME280;7004;48.206;16.402;2023-08-17T03:07:10;99927.84;;;21.24;99.36
13869;BME280;7004;48.206;16.402;2023-08-17T03:09:36;99924.28;;;20.37;100.00
13869;BME280;7004;48.206;16.402;2023-08-17T03:12:02;99917.25;;;21.14;100.00
13869;BME280;7004;48.206;16.402;2023-08-17T03:14:29;99920.63;;;21.51;98.16
13869;BME280;7004;48.206;16.402;2023-08-17T03:16:55;99913.97;;;20.68;100.00
13869;BME280;7004;48.206;16.402;2023-08-17T03:19:22;99919.44;;;20.41;100.00
13869;BME280;7004;48.206;16.402;2023-08-17T03:21:48;99927.34;;;19.89;100.00
13869;BME280;7004;48.206;16.402;2023-08-17T03:24:14;99931.75;;;20.51;100.00
13869;BME280;7004;48.206;16.402;2023-08-17T03:26:40;99922.44;;;20.82;100.00
13869;BME280;7004;48.206;16.402;2023-08-17T03:29:06;99922.38;;;20.29;100.00
13869;BME280;7004;48.206;16.402;2023-08-17T03:31:34;99925.94;;;19.84;100.00
13869;BME280;7004;48.206;16.402;2023-08-17T03:34:00;99931.25;;;19.94;100.00
13869;BME280;7004;48.206;16.402;2023-08-17T03:36:27;99922.44;;;20.02;100.00
13869;BME280;7004;48.206;16.402;2023-08-17T03:38:53;99928.34;;;19.70;100.00
13869;BME280;7004;48.206;16.402;2023-08-17T03:41:21;99920.59;;;20.02;100.00
13869;BME280;7004;48.206;16.402;2023-08-17T03:43:49;99923.44;;;20.37;100.00
13869;BME280;7004;48.206;16.402;2023-08-17T03:46:15;99932.53;;;20.44;100.00
13869;BME280;7004;48.206;16.402;2023-08-17T03:48:41;99929.94;;;20.52;100.00
13869;BME280;7004;48.206;16.402;2023-08-17T03:51:07;99923.44;;;20.19;100.00
13869;BME280;7004;48.206;16.402;2023-08-17T03:53:33;99921.97;;;20.24;100.00
13869;BME280;7004;48.206;16.402;2023-08-17T03:56:00;99934.53;;;19.70;100.00
13869;BME280;7004;48.206;16.402;2023-08-17T03:58:27;99937.22;;;19.70;100.00
13869;BME280;7004;48.206;16.402;2023-08-17T04:00:58;99925.59;;;19.79;100.00
13869;BME280;7004;48.206;16.402;2023-08-17T04:03:25;99927.03;;;20.27;100.00
13869;BME280;7004;48.206;16.402;2023-08-17T04:05:51;99927.88;;;19.92;100.00
13869;BME280;7004;48.206;16.402;2023-08-17T04:08:17;99928.97;;;20.17;100.00
13869;BME280;7004;48.206;16.402;2023-08-17T04:10:43;99939.06;;;20.59;100.00
13869;BME280;7004;48.206;16.402;2023-08-17T04:13:09;99933.56;;;20.25;100.00
13869;BME280;7004;48.206;16.402;2023-08-17T04:15:35;99943.00;;;20.29;100.00
13869;BME280;7004;48.206;16.402;2023-08-17T04:18:01;99947.34;;;20.30;100.00
13869;BME280;7004;48.206;16.402;2023-08-17T04:20:27;99943.66;;;20.31;100.00
13869;BME280;7004;48.206;16.402;2023-08-17T04:22:53;99952.72;;;20.48;100.00
13869;BME280;7004;48.206;16.402;2023-08-17T04:25:19;99952.03;;;20.46;100.00
13869;BME280;7004;48.206;16.402;2023-08-17T04:27:45;99955.88;;;20.07;100.00
13869;BME280;7004;48.206;16.402;2023-08-17T04:30:12;99948.50;;;20.27;100.00
13869;BME280;7004;48.206;16.402;2023-08-17T04:32:38;99949.66;;;20.07;100.00
13869;BME280;7004;48.206;16.402;2023-08-17T04:35:04;99948.44;;;20.19;100.00
13869;BME280;7004;48.206;16.402;2023-08-17T04:37:31;99954.53;;;19.76;100.00
13869;BME280;7004;48.206;16.402;2023-08-17T04:39:57;99966.22;;;20.02;100.00
13869;BME280;7004;48.206;16.402;2023-08-17T04:42:23;99971.03;;;19.81;100.00
13869;BME280;7004;48.206;16.402;2023-08-17T04:44:50;99964.63;;;19.64;100.00
13869;BME280;7004;48.206;16.402;2023-08-17T04:47:16;99965.22;;;19.85;100.00
13869;BME280;7004;48.206;16.402;2023-08-17T04:49:42;99964.31;;;20.30;100.00
13869;BME280;7004;48.206;16.402;2023-08-17T04:52:08;99944.81;;;20.28;100.00
13869;BME280;7004;48.206;16.402;2023-08-17T04:54:34;99947.03;;;20.33;100.00
13869;BME280;7004;48.206;16.402;2023-08-17T04:57:01;99945.34;;;20.50;100.00
13869;BME280;7004;48.206;16.402;2023-08-17T04:59:29;99941.66;;;20.51;100.00
13869;BME280;7004;48.206;16.402;2023-08-17T05:01:55;99949.34;;;20.28;100.00
13869;BME280;7004;48.206;16.402;2023-08-17T05:04:21;99940.66;;;20.70;100.00
13869;BME280;7004;48.206;16.402;2023-08-17T05:06:47;99944.94;;;20.81;100.00
13869;BME280;7004;48.206;16.402;2023-08-17T05:09:13;99948.94;;;20.77;100.00
13869;BME280;7004;48.206;16.402;2023-08-17T05:11:39;99949.34;;;20.90;100.00
13869;BME280;7004;48.206;16.402;2023-08-17T05:14:05;99952.63;;;21.02;100.00
13869;BME280;7004;48.206;16.402;2023-08-17T05:16:31;99951.06;;;20.91;100.00
13869;BME280;7004;48.206;16.402;2023-08-17T05:18:57;99950.66;;;21.38;100.00
13869;BME280;7004;48.206;16.402;2023-08-17T05:21:26;99962.00;;;21.32;100.00
13869;BME280;7004;48.206;16.402;2023-08-17T05:23:54;99965.13;;;21.19;100.00
13869;BME280;7004;48.206;16.402;2023-08-17T05:26:20;99965.63;;;21.41;100.00
13869;BME280;7004;48.206;16.402;2023-08-17T05:28:46;99966.38;;;21.33;100.00
13869;BME280;7004;48.206;16.402;2023-08-17T05:31:12;99963.81;;;21.57;100.00
13869;BME280;7004;48.206;16.402;2023-08-17T05:33:39;99964.16;;;21.54;100.00
13869;BME280;7004;48.206;16.402;2023-08-17T05:36:07;99965.56;;;21.67;100.00
13869;BME280;7004;48.206;16.402;2023-08-17T05:38:33;99969.81;;;21.94;100.00
13869;BME280;7004;48.206;16.402;2023-08-17T05:41:00;99971.41;;;21.62;100.00
13869;BME280;7004;48.206;16.402;2023-08-17T05:43:28;99968.16;;;21.93;100.00
13869;BME280;7004;48.206;16.402;2023-08-17T05:45:54;99963.72;;;21.84;100.00
13869;BME280;7004;48.206;16.402;2023-08-17T05:48:22;99973.78;;;21.73;100.00
13869;BME280;7004;48.206;16.402;2023-08-17T05:50:48;99971.09;;;21.73;100.00
13869;BME280;7004;48.206;16.402;2023-08-17T05:53:14;99980.72;;;21.84;100.00
13869;BME280;7004;48.206;16.402;2023-08-17T05:55:40;99976.22;;;21.93;100.00
13869;BME280;7004;48.206;16.402;2023-08-17T05:58:07;99980.59;;;21.94;100.00
13869;BME280;7004;48.206;16.402;2023-08-17T06:00:33;99980.16;;;22.23;100.00
13869;BME280;7004;48.206;16.402;2023-08-17T06:02:59;99983.19;;;22.20;100.00
13869;BME280;7004;48.206;16.402;2023-08-17T06:05:29;99979.66;;;22.19;100.00
13869;BME280;7004;48.206;16.402;2023-08-17T06:07:56;99982.53;;;22.34;99.44
13869;BME280;7004;48.206;16.402;2023-08-17T06:10:23;99977.50;;;22.39;98.63
13869;BME280;7004;48.206;16.402;2023-08-17T06:12:56;99980.69;;;22.43;98.67
13869;BME280;7004;48.206;16.402;2023-08-17T06:15:23;99970.75;;;22.68;99.49
13869;BME280;7004;48.206;16.402;2023-08-17T06:17:49;99967.72;;;22.71;99.34
13869;BME280;7004;48.206;16.402;2023-08-17T06:20:16;99960.00;;;22.60;99.90
13869;BME280;7004;48.206;16.402;2023-08-17T06:22:43;99961.50;;;22.71;99.52
13869;BME280;7004;48.206;16.402;2023-08-17T06:25:09;99959.94;;;22.93;98.75
13869;BME280;7004;48.206;16.402;2023-08-17T06:27:36;99971.22;;;23.13;97.72
13869;BME280;7004;48.206;16.402;2023-08-17T06:30:06;99965.72;;;23.45;94.38
13869;BME280;7004;48.206;16.402;2023-08-17T06:32:32;99964.03;;;23.44;94.50
13869;BME280;7004;48.206;16.402;2023-08-17T06:34:58;99958.63;;;23.44;94.86
13869;BME280;7004;48.206;16.402;2023-08-17T06:37:25;99964.50;;;23.56;89.96
13869;BME280;7004;48.206;16.402;2023-08-17T06:39:51;99957.94;;;23.90;88.68
13869;BME280;7004;48.206;16.402;2023-08-17T06:42:17;99953.25;;;23.84;88.25
13869;BME280;7004;48.206;16.402;2023-08-17T06:44:43;99961.84;;;23.87;85.76
13869;BME280;7004;48.206;16.402;2023-08-17T06:47:10;99959.81;;;23.89;84.41
13869;BME280;7004;48.206;16.402;2023-08-17T06:49:36;99958.81;;;24.74;82.52
13869;BME280;7004;48.206;16.402;2023-08-17T06:52:03;99960.56;;;24.52;87.68
13869;BME280;7004;48.206;16.402;2023-08-17T06:54:30;99961.16;;;24.62;85.08
13869;BME280;7004;48.206;16.402;2023-08-17T06:56:58;99968.19;;;24.26;84.79
13869;BME280;7004;48.206;16.402;2023-08-17T06:59:24;99975.53;;;24.32;86.47
13869;BME280;7004;48.206;16.402;2023-08-17T07:01:50;99972.25;;;24.68;84.96
13869;BME280;7004;48.206;16.402;2023-08-17T07:04:17;99972.47;;;24.35;85.14
13869;BME280;7004;48.206;16.402;2023-08-17T07:06:43;99970.25;;;24.47;87.19
13869;BME280;7004;48.206;16.402;2023-08-17T07:09:09;99976.63;;;24.69;86.82
13869;BME280;7004;48.206;16.402;2023-08-17T07:11:38;99971.06;;;24.47;87.06
13869;BME280;7004;48.206;16.402;2023-08-17T07:14:05;99973.69;;;24.55;88.02
13869;BME280;7004;48.206;16.402;2023-08-17T07:16:32;99985.22;;;24.26;85.68
13869;BME280;7004;48.206;16.402;2023-08-17T07:18:59;99985.16;;;24.34;87.25
13869;BME280;7004;48.206;16.402;2023-08-17T07:21:25;99980.44;;;23.82;88.29
13869;BME280;7004;48.206;16.402;2023-08-17T07:23:54;99985.63;;;24.61;84.11
13869;BME280;7004;48.206;16.402;2023-08-17T07:26:22;99982.31;;;24.28;85.98
13869;BME280;7004;48.206;16.402;2023-08-17T07:28:49;99990.72;;;24.10;84.92
13869;BME280;7004;48.206;16.402;2023-08-17T07:31:15;99997.72;;;24.73;83.40
13869;BME280;7004;48.206;16.402;2023-08-17T07:33:41;99986.81;;;25.19;82.95
13869;BME280;7004;48.206;16.402;2023-08-17T07:36:07;99995.28;;;24.78;84.53
13869;BME280;7004;48.206;16.402;2023-08-17T07:38:34;99999.28;;;24.68;80.80
13869;BME280;7004;48.206;16.402;2023-08-17T07:41:00;99995.59;;;24.83;83.37
13869;BME280;7004;48.206;16.402;2023-08-17T07:43:26;100000.59;;;24.49;83.63
13869;BME280;7004;48.206;16.402;2023-08-17T07:45:56;100004.09;;;25.10;82.70
13869;BME280;7004;48.206;16.402;2023-08-17T07:48:23;99995.28;;;25.16;78.10
13869;BME280;7004;48.206;16.402;2023-08-17T07:50:53;99993.88;;;25.50;77.84
13869;BME280;7004;48.206;16.402;2023-08-17T07:53:19;99995.81;;;25.12;80.99
13869;BME280;7004;48.206;16.402;2023-08-17T07:55:46;100003.13;;;24.73;81.49
13869;BME280;7004;48.206;16.402;2023-08-17T07:58:12;100006.78;;;24.80;78.87
13869;BME280;7004;48.206;16.402;2023-08-17T08:00:38;99995.97;;;24.95;80.38
13869;BME280;7004;48.206;16.402;2023-08-17T08:03:04;99990.06;;;24.77;81.98
13869;BME280;7004;48.206;16.402;2023-08-17T08:05:31;99992.09;;;24.75;81.55
13869;BME280;7004;48.206;16.402;2023-08-17T08:07:57;99989.00;;;24.63;80.56
13869;BME280;7004;48.206;16.402;2023-08-17T08:10:23;99988.63;;;24.66;83.57
13869;BME280;7004;48.206;16.402;2023-08-17T08:12:49;99989.38;;;24.75;83.20
13869;BME280;7004;48.206;16.402;2023-08-17T08:15:16;99989.75;;;24.57;82.46
13869;BME280;7004;48.206;16.402;2023-08-17T08:17:42;99989.97;;;24.70;84.78
13869;BME280;7004;48.206;16.402;2023-08-17T08:20:08;99990.81;;;24.71;86.11
13869;BME280;7004;48.206;16.402;2023-08-17T08:22:35;99992.22;;;24.81;85.16
13869;BME280;7004;48.206;16.402;2023-08-17T08:25:01;99989.75;;;24.57;86.42
13869;BME280;7004;48.206;16.402;2023-08-17T08:27:27;99994.22;;;24.41;83.91
13869;BME280;7004;48.206;16.402;2023-08-17T08:29:53;99985.03;;;24.74;80.67
13869;BME280;7004;48.206;16.402;2023-08-17T08:32:19;99987.34;;;24.62;84.93
13869;BME280;7004;48.206;16.402;2023-08-17T08:34:45;99989.97;;;24.85;83.06
13869;BME280;7004;48.206;16.402;2023-08-17T08:37:11;99985.16;;;24.95;82.58
13869;BME280;7004;48.206;16.402;2023-08-17T08:39:53;99992.25;;;24.96;83.27
13869;BME280;7004;48.206;16.402;2023-08-17T08:42:21;99993.28;;;24.57;82.47
13869;BME280;7004;48.206;16.402;2023-08-17T08:44:48;99994.03;;;25.04;81.00
13869;BME280;7004;48.206;16.402;2023-08-17T08:47:17;99992.00;;;25.06;81.89
13869;BME280;7004;48.206;16.402;2023-08-17T08:49:55;99984.03;;;25.42;77.98
13869;BME280;7004;48.206;16.402;2023-08-17T08:52:36;99993.88;;;24.68;80.96
13869;BME280;7004;48.206;16.402;2023-08-17T08:55:23;99988.09;;;25.23;78.34
13869;BME280;7004;48.206;16.402;2023-08-17T08:57:53;99987.78;;;25.03;79.10
13869;BME280;7004;48.206;16.402;2023-08-17T09:00:22;99990.94;;;24.92;78.62
13869;BME280;7004;48.206;16.402;2023-08-17T09:02:51;99989.88;;;25.31;77.77
13869;BME280;7004;48.206;16.402;2023-08-17T09:05:17;99986.44;;;25.22;78.82
13869;BME280;7004;48.206;16.402;2023-08-17T09:07:45;99990.81;;;25.38;76.08
13869;BME280;7004;48.206;16.402;2023-08-17T09:10:14;99995.84;;;24.74;78.98
13869;BME280;7004;48.206;16.402;2023-08-17T09:12:45;99990.91;;;25.45;74.98
13869;BME280;7004;48.206;16.402;2023-08-17T09:15:11;99994.88;;;25.93;73.73
13869;BME280;7004;48.206;16.402;2023-08-17T09:17:38;99990.06;;;26.10;74.08
13869;BME280;7004;48.206;16.402;2023-08-17T09:20:05;99983.47;;;26.20;71.35
13869;BME280;7004;48.206;16.402;2023-08-17T09:22:41;99987.91;;;25.84;71.90
13869;BME280;7004;48.206;16.402;2023-08-17T09:25:10;99984.84;;;25.43;74.28
13869;BME280;7004;48.206;16.402;2023-08-17T09:27:37;99979.59;;;25.56;73.38
13869;BME280;7004;48.206;16.402;2023-08-17T09:30:13;99983.41;;;25.77;72.28
13869;BME280;7004;48.206;16.402;2023-08-17T09:32:41;99984.59;;;25.89;71.29
13869;BME280;7004;48.206;16.402;2023-08-17T09:35:08;99978.59;;;26.08;72.32
13869;BME280;7004;48.206;16.402;2023-08-17T09:37:34;99976.41;;;26.40;71.42
13869;BME280;7004;48.206;16.402;2023-08-17T09:40:01;99975.75;;;26.17;73.11
13869;BME280;7004;48.206;16.402;2023-08-17T09:42:28;99970.41;;;26.45;71.13
13869;BME280;7004;48.206;16.402;2023-08-17T09:44:54;99970.06;;;26.76;68.75
13869;BME280;7004;48.206;16.402;2023-08-17T09:47:26;99969.47;;;26.52;72.41
13869;BME280;7004;48.206;16.402;2023-08-17T09:49:54;99969.59;;;26.94;69.04
13869;BME280;7004;48.206;16.402;2023-08-17T09:52:22;99961.56;;;27.49;68.40
13869;BME280;7004;48.206;16.402;2023-08-17T09:54:48;99959.47;;;27.99;65.98
13869;BME280;7004;48.206;16.402;2023-08-17T09:57:15;99953.41;;;27.90;62.08
13869;BME280;7004;48.206;16.402;2023-08-17T09:59:42;99954.75;;;28.34;60.15
13869;BME280;7004;48.206;16.402;2023-08-17T10:02:19;99947.06;;;28.64;59.36
13869;BME280;7004;48.206;16.402;2023-08-17T10:04:51;99949.75;;;28.84;56.15
13869;BME280;7004;48.206;16.402;2023-08-17T10:07:19;99952.88;;;28.35;55.63
13869;BME280;7004;48.206;16.402;2023-08-17T10:09:57;99939.31;;;28.61;52.73
13869;BME280;7004;48.206;16.402;2023-08-17T10:12:28;99938.69;;;30.02;51.07
13869;BME280;7004;48.206;16.402;2023-08-17T10:15:03;99942.19;;;29.78;49.38
13869;BME280;7004;48.206;16.402;2023-08-17T10:17:39;99935.25;;;29.82;49.52
13869;BME280;7004;48.206;16.402;2023-08-17T10:20:08;99932.91;;;29.34;49.29
13869;BME280;7004;48.206;16.402;2023-08-17T10:25:22;99934.69;;;29.67;51.08
13869;BME280;7004;48.206;16.402;2023-08-17T10:27:53;99926.53;;;29.08;52.50
13869;BME280;7004;48.206;16.402;2023-08-17T10:30:20;99925.88;;;29.71;52.41
13869;BME280;7004;48.206;16.402;2023-08-17T10:32:46;99914.53;;;29.03;54.07
13869;BME280;7004;48.206;16.402;2023-08-17T10:35:13;99923.84;;;28.62;54.48
13869;BME280;7004;48.206;16.402;2023-08-17T10:37:41;99918.56;;;28.87;53.95
13869;BME280;7004;48.206;16.402;2023-08-17T10:40:08;99925.91;;;28.53;53.86
13869;BME280;7004;48.206;16.402;2023-08-17T10:42:35;99908.44;;;29.27;51.42
13869;BME280;7004;48.206;16.402;2023-08-17T10:47:48;99913.56;;;28.64;51.18
13869;BME280;7004;48.206;16.402;2023-08-17T10:50:23;99916.50;;;29.54;49.98
13869;BME280;7004;48.206;16.402;2023-08-17T10:52:53;99908.66;;;30.09;47.72
13869;BME280;7004;48.206;16.402;2023-08-17T10:55:45;99904.41;;;30.20;51.77
13869;BME280;7004;48.206;16.402;2023-08-17T10:58:14;99906.50;;;30.50;49.65
13869;BME280;7004;48.206;16.402;2023-08-17T11:00:41;99915.44;;;30.00;51.19
13869;BME280;7004;48.206;16.402;2023-08-17T11:03:21;99904.94;;;29.00;51.07
13869;BME280;7004;48.206;16.402;2023-08-17T11:05:52;99905.63;;;28.69;51.13
13869;BME280;7004;48.206;16.402;2023-08-17T11:08:34;99902.69;;;28.64;51.19
13869;BME280;7004;48.206;16.402;2023-08-17T11:11:12;99903.50;;;28.91;49.52
13869;BME280;7004;48.206;16.402;2023-08-17T11:13:43;99899.34;;;29.47;47.30
13869;BME280;7004;48.206;16.402;2023-08-17T11:16:12;99900.59;;;28.66;49.65
13869;BME280;7004;48.206;16.402;2023-08-17T11:18:39;99898.44;;;29.08;51.44
13869;BME280;7004;48.206;16.402;2023-08-17T11:21:07;99897.44;;;28.89;48.16
13869;BME280;7004;48.206;16.402;2023-08-17T11:23:37;99900.97;;;28.89;47.69
13869;BME280;7004;48.206;16.402;2023-08-17T11:26:04;99901.63;;;28.71;48.51
13869;BME280;7004;48.206;16.402;2023-08-17T11:28:31;99897.38;;;29.02;47.76
13869;BME280;7004;48.206;16.402;2023-08-17T11:31:04;99897.75;;;29.77;45.02
13869;BME280;7004;48.206;16.402;2023-08-17T11:33:32;99903.84;;;29.79;47.37
13869;BME280;7004;48.206;16.402;2023-08-17T11:36:02;99897.63;;;28.87;50.44
13869;BME280;7004;48.206;16.402;2023-08-17T11:38:34;99891.94;;;29.02;46.69
13869;BME280;7004;48.206;16.402;2023-08-17T11:41:02;99896.59;;;28.82;47.96
13869;BME280;7004;48.206;16.402;2023-08-17T11:43:32;99891.41;;;29.45;47.30
13869;BME280;7004;48.206;16.402;2023-08-17T11:46:00;99896.72;;;29.27;50.62
13869;BME280;7004;48.206;16.402;2023-08-17T11:48:27;99889.34;;;29.40;49.83
13869;BME280;7004;48.206;16.402;2023-08-17T11:50:54;99889.78;;;29.31;50.46
13869;BME280;7004;48.206;16.402;2023-08-17T11:53:24;99893.13;;;29.33;53.11
13869;BME280;7004;48.206;16.402;2023-08-17T11:55:50;99886.78;;;28.81;49.27
13869;BME280;7004;48.206;16.402;2023-08-17T11:58:17;99890.69;;;30.01;48.06
13869;BME280;7004;48.206;16.402;2023-08-17T12:00:44;99892.78;;;29.16;49.46
13869;BME280;7004;48.206;16.402;2023-08-17T12:03:14;99893.00;;;29.14;50.19
13869;BME280;7004;48.206;16.402;2023-08-17T12:05:44;99895.56;;;28.76;50.89
13869;BME280;7004;48.206;16.402;2023-08-17T12:08:13;99877.13;;;28.98;49.67
13869;BME280;7004;48.206;16.402;2023-08-17T12:10:40;99881.84;;;29.29;50.86
13869;BME280;7004;48.206;16.402;2023-08-17T12:13:06;99880.72;;;29.50;52.80
13869;BME280;7004;48.206;16.402;2023-08-17T12:15:38;99883.34;;;29.70;49.56
13869;BME280;7004;48.206;16.402;2023-08-17T12:18:05;99880.09;;;29.42;50.14
13869;BME280;7004;48.206;16.402;2023-08-17T12:20:34;99868.19;;;29.36;49.80
13869;BME280;7004;48.206;16.402;2023-08-17T12:23:05;99874.59;;;29.03;49.84
13869;BME280;7004;48.206;16.402;2023-08-17T12:25:31;99870.16;;;29.15;49.11
13869;BME280;7004;48.206;16.402;2023-08-17T12:28:00;99862.66;;;28.97;50.52
13869;BME280;7004;48.206;16.402;2023-08-17T12:30:31;99862.81;;;29.29;48.95
13869;BME280;7004;48.206;16.402;2023-08-17T12:33:02;99860.72;;;29.25;48.16
13869;BME280;7004;48.206;16.402;2023-08-17T12:35:30;99860.97;;;29.16;48.06
13869;BME280;7004;48.206;16.402;2023-08-17T12:37:57;99850.22;;;29.28;46.60
13869;BME280;7004;48.206;16.402;2023-08-17T12:40:23;99846.34;;;29.11;46.89
13869;BME280;7004;48.206;16.402;2023-08-17T12:42:50;99840.31;;;29.47;47.39
13869;BME280;7004;48.206;16.402;2023-08-17T12:45:16;99838.78;;;29.51;46.36
13869;BME280;7004;48.206;16.402;2023-08-17T12:47:43;99841.16;;;29.79;46.42
13869;BME280;7004;48.206;16.402;2023-08-17T12:50:09;99829.47;;;30.29;45.58
13869;BME280;7004;48.206;16.402;2023-08-17T12:52:35;99830.13;;;29.99;45.37
13869;BME280;7004;48.206;16.402;2023-08-17T12:55:02;99822.31;;;30.10;46.37
13869;BME280;7004;48.206;16.402;2023-08-17T12:57:29;99809.16;;;30.50;46.31
13869;BME280;7004;48.206;16.402;2023-08-17T12:59:55;99824.53;;;29.94;45.49
13869;BME280;7004;48.206;16.402;2023-08-17T13:02:22;99825.34;;;29.18;45.89
13869;BME280;7004;48.206;16.402;2023-08-17T13:04:49;99825.84;;;29.47;46.85
13869;BME280;7004;48.206;16.402;2023-08-17T13:07:15;99823.03;;;29.67;46.46